createdAt,value
2018-03-28T04:08:18.108Z,13.60
2018-03-28T04:10:44.886Z,12.87
2018-03-28T04:13:11.640Z,13.30
2018-03-28T04:15:38.439Z,13.43
2018-03-28T04:18:05.220Z,12.40
2018-03-28T04:20:31.970Z,12.87
2018-03-28T04:22:58.747Z,10.33
2018-03-28T04:25:25.520Z,11.75
2018-03-28T04:27:52.307Z,12.10
2018-03-28T04:30:19.125Z,10.13
2018-03-28T04:32:45.884Z,12.80
2018-03-28T04:35:12.695Z,13.47
2018-03-28T04:37:39.469Z,13.37
2018-03-28T04:40:06.278Z,12.37
2018-03-28T04:42:33.035Z,11.07
2018-03-28T04:44:59.817Z,12.60
2018-03-28T04:47:26.593Z,10.70
2018-03-28T04:49:53.370Z,10.43
2018-03-28T04:52:20.164Z,11.20
2018-03-28T04:54:46.924Z,11.00
2018-03-28T04:57:13.691Z,13.57
2018-03-28T04:59:40.454Z,10.27
2018-03-28T05:02:07.205Z,11.33
2018-03-28T05:04:34.048Z,11.87
2018-03-28T05:07:00.807Z,11.37
2018-03-28T05:09:27.571Z,14.60
2018-03-28T05:11:54.324Z,12.33
2018-03-28T05:14:21.070Z,10.70
2018-03-28T05:16:47.849Z,12.60
2018-03-28T05:19:14.667Z,12.50
2018-03-28T05:21:41.450Z,12.10
2018-03-28T05:24:08.216Z,12.73
2018-03-28T05:26:35.013Z,12.10
2018-03-28T05:29:02.782Z,11.57
2018-03-28T05:31:30.626Z,13.60
2018-03-28T05:33:57.425Z,11.43
2018-03-28T05:36:24.196Z,11.80
2018-03-28T05:38:50.980Z,12.63
2018-03-28T05:41:17.777Z,10.30
2018-03-28T05:43:44.596Z,12.63
2018-03-28T05:46:11.380Z,11.50
2018-03-28T05:48:38.194Z,11.33
2018-03-28T05:51:04.967Z,12.10
2018-03-28T05:53:31.918Z,12.40
2018-03-28T05:55:58.924Z,13.07
2018-03-28T05:58:25.716Z,11.33
2018-03-28T06:00:52.499Z,9.30
2018-03-28T06:03:19.287Z,11.60
2018-03-28T06:05:46.126Z,11.10
2018-03-28T06:08:12.931Z,12.30
2018-03-28T06:10:39.788Z,11.53
2018-03-28T06:13:06.659Z,8.57
2018-03-28T06:15:33.459Z,11.10
2018-03-28T06:18:00.346Z,11.07
2018-03-28T06:20:27.160Z,10.50
2018-03-28T06:22:53.916Z,10.73
2018-03-28T06:25:20.697Z,12.17
2018-03-28T06:27:47.483Z,10.70
2018-03-28T06:30:14.414Z,9.60
2018-03-28T06:32:41.229Z,10.73
2018-03-28T06:35:08.049Z,11.73
2018-03-28T06:37:34.818Z,9.80
2018-03-28T06:40:01.623Z,10.87
2018-03-28T06:42:28.419Z,9.70
2018-03-28T06:44:55.264Z,7.47
2018-03-28T06:47:22.054Z,8.40
2018-03-28T06:49:48.883Z,10.03
2018-03-28T06:52:15.740Z,7.50
2018-03-28T06:54:42.592Z,8.43
2018-03-28T06:57:09.395Z,7.87
2018-03-28T06:59:36.181Z,9.90
2018-03-28T07:02:02.983Z,6.97
2018-03-28T07:04:29.756Z,8.47
2018-03-28T07:06:56.592Z,7.53
2018-03-28T07:09:23.473Z,10.03
2018-03-28T07:11:50.240Z,7.33
2018-03-28T07:14:16.991Z,9.80
2018-03-28T07:16:43.759Z,8.13
2018-03-28T07:19:10.588Z,8.57
2018-03-28T07:21:37.399Z,11.00
2018-03-28T07:24:04.164Z,9.00
2018-03-28T07:26:30.932Z,6.20
2018-03-28T07:28:57.707Z,8.80
2018-03-28T07:31:24.526Z,9.97
2018-03-28T07:33:51.294Z,7.80
2018-03-28T07:36:18.078Z,7.87
2018-03-28T07:38:44.922Z,9.40
2018-03-28T07:41:11.715Z,7.37
2018-03-28T07:43:38.559Z,8.47
2018-03-28T07:46:05.336Z,8.40
2018-03-28T07:48:32.203Z,11.00
2018-03-28T07:50:59.045Z,7.37
2018-03-28T07:53:25.801Z,8.80
2018-03-28T07:55:52.614Z,8.67
2018-03-28T07:58:19.399Z,7.70
2018-03-28T08:00:46.271Z,8.90
2018-03-28T08:03:13.321Z,7.67
2018-03-28T08:05:40.122Z,8.70
2018-03-28T08:08:06.929Z,7.97
2018-03-28T08:10:33.705Z,6.33
2018-03-28T08:13:00.503Z,10.07
2018-03-28T08:15:27.266Z,9.37
2018-03-28T08:17:54.049Z,8.70
2018-03-28T08:20:20.860Z,8.90
2018-03-28T08:22:47.683Z,7.60
2018-03-28T08:25:14.496Z,8.23
2018-03-28T08:27:41.240Z,8.60
2018-03-28T08:30:07.979Z,9.23
2018-03-28T08:32:34.803Z,8.53
2018-03-28T08:35:01.604Z,8.50
2018-03-28T08:37:28.413Z,9.20
2018-03-28T08:39:55.190Z,8.40
2018-03-28T08:42:21.991Z,7.87
2018-03-28T08:44:48.886Z,7.20
2018-03-28T08:47:15.727Z,9.40
2018-03-28T08:49:42.475Z,9.73
2018-03-28T08:52:09.328Z,9.10
2018-03-28T08:54:36.075Z,8.70
2018-03-28T08:57:02.892Z,9.53
2018-03-28T08:59:29.721Z,8.43
2018-03-28T09:01:56.547Z,8.40
2018-03-28T09:04:23.327Z,9.37
2018-03-28T09:06:50.130Z,10.47
2018-03-28T09:09:16.927Z,7.23
2018-03-28T09:11:43.698Z,8.20
2018-03-28T09:14:10.481Z,8.33
2018-03-28T09:16:37.281Z,10.90
2018-03-28T09:19:04.084Z,9.37
2018-03-28T09:21:30.902Z,11.30
2018-03-28T09:23:57.677Z,10.07
2018-03-28T09:26:24.463Z,10.70
2018-03-28T09:28:51.239Z,9.33
2018-03-28T09:31:18.028Z,10.80
2018-03-28T09:33:44.845Z,8.97
2018-03-28T09:36:11.620Z,7.77
2018-03-28T09:38:38.397Z,8.73
2018-03-28T09:41:05.175Z,11.17
2018-03-28T09:43:31.938Z,10.90
2018-03-28T09:45:58.751Z,10.30
2018-03-28T09:48:25.570Z,9.63
2018-03-28T09:50:52.360Z,9.70
2018-03-28T09:53:19.112Z,10.70
2018-03-28T09:55:45.888Z,11.27
2018-03-28T09:58:12.700Z,13.07
2018-03-28T10:00:39.487Z,11.07
2018-03-28T10:03:12.126Z,8.13
2018-03-28T10:05:38.938Z,8.80
2018-03-28T10:08:05.770Z,10.50
2018-03-28T10:10:32.536Z,9.67
2018-03-28T10:12:59.326Z,8.70
2018-03-28T10:15:26.173Z,6.63
2018-03-28T10:17:52.974Z,9.37
2018-03-28T10:20:19.772Z,10.60
2018-03-28T10:22:46.543Z,9.10
2018-03-28T10:25:13.304Z,8.77
2018-03-28T10:27:40.111Z,9.83
2018-03-28T10:30:06.871Z,8.17
2018-03-28T10:32:33.723Z,8.50
2018-03-28T10:35:00.501Z,9.23
2018-03-28T10:37:27.304Z,8.53
2018-03-28T10:39:54.089Z,10.13
2018-03-28T10:42:20.891Z,8.07
2018-03-28T10:44:47.671Z,8.70
2018-03-28T10:47:14.450Z,8.70
2018-03-28T10:49:41.236Z,9.40
2018-03-28T10:52:08.047Z,9.70
2018-03-28T10:54:34.805Z,6.87
2018-03-28T10:57:01.575Z,7.90
2018-03-28T10:59:28.371Z,7.90
2018-03-28T11:01:55.184Z,8.23
2018-03-28T11:04:21.979Z,9.03
2018-03-28T11:06:48.778Z,9.30
2018-03-28T11:09:15.548Z,8.10
2018-03-28T11:11:42.304Z,8.47
2018-03-28T11:14:09.440Z,6.73
2018-03-28T11:16:36.289Z,6.83
2018-03-28T11:19:03.054Z,6.33
2018-03-28T11:21:29.834Z,6.93
2018-03-28T11:23:56.608Z,7.63
2018-03-28T11:26:23.378Z,7.27
2018-03-28T11:28:50.188Z,7.00
2018-03-28T11:31:16.984Z,8.37
2018-03-28T11:33:43.752Z,6.57
2018-03-28T11:36:10.534Z,6.53
2018-03-28T11:38:37.311Z,5.70
2018-03-28T11:41:04.095Z,6.60
2018-03-28T11:43:30.896Z,5.87
2018-03-28T11:45:57.671Z,9.30
2018-03-28T11:48:24.442Z,7.20
2018-03-28T11:50:51.275Z,6.70
2018-03-28T11:53:18.105Z,4.80
2018-03-28T11:55:44.881Z,6.83
2018-03-28T11:58:11.672Z,7.97
2018-03-28T12:00:38.445Z,5.67
2018-03-28T12:03:05.202Z,8.90
2018-03-28T12:05:32.017Z,8.40
2018-03-28T12:07:58.790Z,8.57
2018-03-28T12:10:25.581Z,8.93
2018-03-28T12:12:52.340Z,9.50
2018-03-28T12:15:19.179Z,8.23
2018-03-28T12:17:45.994Z,9.90
2018-03-28T12:20:12.754Z,9.10
2018-03-28T12:22:39.516Z,9.97
2018-03-28T12:25:06.315Z,8.97
2018-03-28T12:27:33.111Z,8.90
2018-03-28T12:29:59.901Z,9.03
2018-03-28T12:32:26.800Z,9.40
2018-03-28T12:34:53.568Z,12.67
2018-03-28T12:37:20.361Z,9.50
2018-03-28T12:39:47.207Z,12.10
2018-03-28T12:42:14.017Z,10.20
2018-03-28T12:44:40.819Z,9.00
2018-03-28T12:47:07.604Z,10.10
2018-03-28T12:49:34.402Z,11.97
2018-03-28T12:52:01.157Z,12.00
2018-03-28T12:54:28.019Z,12.63
2018-03-28T12:56:54.807Z,10.33
2018-03-28T12:59:21.786Z,10.37
2018-03-28T13:01:48.547Z,5.90
2018-03-28T13:04:15.362Z,16.97
2018-03-28T13:06:42.187Z,13.30
2018-03-28T13:09:08.976Z,13.23
2018-03-28T13:11:35.787Z,12.60
2018-03-28T13:14:02.559Z,12.93
2018-03-28T13:16:29.355Z,14.03
2018-03-28T13:18:56.173Z,14.00
2018-03-28T13:21:22.961Z,13.27
2018-03-28T13:23:49.712Z,13.10
2018-03-28T13:26:16.480Z,13.70
2018-03-28T13:28:43.267Z,12.83
2018-03-28T13:31:10.149Z,10.53
2018-03-28T13:33:36.882Z,12.03
2018-03-28T13:36:03.716Z,11.20
2018-03-28T13:38:30.553Z,12.60
2018-03-28T13:40:57.323Z,11.50
2018-03-28T13:43:24.155Z,9.97
2018-03-28T13:45:50.954Z,10.80
2018-03-28T13:48:17.720Z,10.27
2018-03-28T13:50:44.496Z,14.43
2018-03-28T13:53:11.263Z,11.50
2018-03-28T13:55:38.055Z,13.33
2018-03-28T13:58:04.896Z,11.90
2018-03-28T14:00:31.720Z,11.97
2018-03-28T14:02:58.944Z,6.10
2018-03-28T14:05:25.702Z,10.40
2018-03-28T14:07:52.522Z,11.53
2018-03-28T14:10:19.286Z,11.43
2018-03-28T14:12:46.627Z,11.57
2018-03-28T14:15:14.291Z,14.40
2018-03-28T14:17:41.044Z,14.90
2018-03-28T14:20:07.866Z,16.50
2018-03-28T14:22:34.649Z,14.67
2018-03-28T14:25:01.438Z,13.50
2018-03-28T14:27:28.225Z,17.20
2018-03-28T14:29:55.013Z,16.87
2018-03-28T14:32:21.822Z,15.20
2018-03-28T14:34:48.594Z,17.00
2018-03-28T14:37:15.377Z,15.87
2018-03-28T14:39:42.140Z,14.33
2018-03-28T14:42:09.014Z,16.60
2018-03-28T14:44:35.874Z,13.30
2018-03-28T14:47:02.665Z,15.60
2018-03-28T14:49:29.411Z,14.40
2018-03-28T14:51:56.163Z,15.30
2018-03-28T14:54:22.990Z,16.10
2018-03-28T14:56:49.862Z,13.10
2018-03-28T14:59:16.651Z,16.37
2018-03-28T15:01:43.424Z,17.10
2018-03-28T15:04:10.221Z,17.73
2018-03-28T15:06:36.996Z,14.97
2018-03-28T15:09:03.826Z,18.90
2018-03-28T15:11:30.594Z,11.50
2018-03-28T15:13:57.371Z,14.00
2018-03-28T15:16:24.163Z,15.97
2018-03-28T15:18:50.932Z,16.43
2018-03-28T15:21:17.752Z,9.67
2018-03-28T15:23:44.530Z,16.43
2018-03-28T15:26:11.275Z,11.77
2018-03-28T15:28:38.035Z,18.33
2018-03-28T15:31:04.812Z,14.90
2018-03-28T15:33:31.618Z,18.10
2018-03-28T15:35:58.791Z,20.13
2018-03-28T15:38:25.651Z,15.03
2018-03-28T15:40:52.458Z,20.20
2018-03-28T15:43:19.225Z,20.73
2018-03-28T15:45:46.024Z,15.00
2018-03-28T15:48:12.821Z,18.57
2018-03-28T15:50:39.596Z,17.37
2018-03-28T15:53:06.393Z,18.50
2018-03-28T15:55:33.160Z,19.87
2018-03-28T15:57:59.961Z,15.33
2018-03-28T16:00:26.731Z,7.27
2018-03-28T16:02:53.484Z,15.27
2018-03-28T16:05:20.243Z,16.70
2018-03-28T16:07:47.074Z,15.33
2018-03-28T16:10:13.898Z,14.50
2018-03-28T16:12:40.685Z,15.33
2018-03-28T16:15:07.525Z,15.40
2018-03-28T16:17:34.374Z,15.57
2018-03-28T16:20:01.142Z,12.50
2018-03-28T16:22:27.903Z,11.17
2018-03-28T16:24:54.711Z,9.30
2018-03-28T16:27:21.497Z,12.80
2018-03-28T16:29:48.283Z,10.03
2018-03-28T16:32:15.090Z,12.50
2018-03-28T16:34:41.850Z,12.70
2018-03-28T16:37:08.604Z,11.37
2018-03-28T16:39:35.421Z,13.07
2018-03-28T16:42:02.223Z,10.40
2018-03-28T16:44:28.988Z,12.30
2018-03-28T16:46:55.743Z,9.20
2018-03-28T16:49:22.537Z,12.60
2018-03-28T16:51:49.299Z,10.80
2018-03-28T16:54:16.046Z,9.73
2018-03-28T16:56:42.882Z,12.47
2018-03-28T16:59:09.651Z,12.43
2018-03-28T17:01:36.485Z,9.70
2018-03-28T17:04:03.247Z,11.43
2018-03-28T17:06:30.208Z,11.43
2018-03-28T17:08:57.090Z,10.87
2018-03-28T17:11:24.152Z,14.00
2018-03-28T17:13:50.931Z,6.67
2018-03-28T17:16:17.700Z,11.83
2018-03-28T17:18:44.504Z,12.37
2018-03-28T17:21:11.307Z,16.57
2018-03-28T17:23:38.127Z,13.07
2018-03-28T17:26:04.944Z,13.80
2018-03-28T17:28:31.727Z,12.80
2018-03-28T17:30:58.497Z,16.57
2018-03-28T17:33:25.294Z,14.47
2018-03-28T17:35:52.107Z,13.30
2018-03-28T17:38:18.875Z,13.70
2018-03-28T17:40:45.635Z,13.97
2018-03-28T17:43:12.416Z,14.27
2018-03-28T17:45:39.194Z,12.47
2018-03-28T17:48:06.058Z,14.18
2018-03-28T17:50:32.827Z,13.57
2018-03-28T17:52:59.659Z,12.47
2018-03-28T17:55:26.412Z,17.55
2018-03-28T17:57:53.274Z,17.80
2018-03-28T18:00:20.094Z,16.07
2018-03-28T18:02:46.897Z,15.40
2018-03-28T18:05:13.777Z,16.37
2018-03-28T18:07:40.529Z,20.08
2018-03-28T18:10:07.340Z,16.52
2018-03-28T18:12:34.178Z,15.32
2018-03-28T18:15:00.986Z,14.87
2018-03-28T18:17:27.791Z,15.75
2018-03-28T18:19:54.554Z,18.10
2018-03-28T18:22:21.360Z,17.27
2018-03-28T18:24:48.175Z,16.27
2018-03-28T18:27:14.963Z,15.48
2018-03-28T18:29:41.761Z,15.38
2018-03-28T18:32:08.586Z,18.50
2018-03-28T18:34:35.387Z,18.92
2018-03-28T18:37:02.219Z,21.20
2018-03-28T18:39:29.273Z,16.75
2018-03-28T18:41:56.073Z,16.87
2018-03-28T18:44:22.870Z,15.00
2018-03-28T18:46:49.671Z,14.35
2018-03-28T18:49:16.487Z,18.30
2018-03-28T18:51:43.375Z,16.98
2018-03-28T18:54:10.136Z,13.47
2018-03-28T18:56:36.911Z,14.75
2018-03-28T18:59:03.739Z,16.90
2018-03-28T19:01:30.686Z,13.07
2018-03-28T19:03:57.471Z,14.93
2018-03-28T19:06:24.323Z,17.60
2018-03-28T19:08:51.109Z,16.67
2018-03-28T19:11:17.895Z,15.77
2018-03-28T19:13:44.732Z,16.60
2018-03-28T19:16:11.510Z,14.57
2018-03-28T19:18:38.292Z,16.65
2018-03-28T19:21:05.142Z,11.73
2018-03-28T19:23:31.944Z,13.38
2018-03-28T19:25:58.798Z,15.75
2018-03-28T19:28:25.588Z,17.23
2018-03-28T19:30:52.382Z,17.12
2018-03-28T19:33:19.187Z,18.40
2018-03-28T19:35:45.960Z,17.25
2018-03-28T19:38:12.801Z,12.40
2018-03-28T19:40:39.579Z,13.35
2018-03-28T19:43:06.354Z,15.82
2018-03-28T19:45:33.196Z,14.43
2018-03-28T19:48:00.031Z,16.07
2018-03-28T19:50:27.121Z,16.02
2018-03-28T19:52:54.015Z,18.35
2018-03-28T19:55:20.865Z,16.15
2018-03-28T19:57:47.679Z,15.48
2018-03-28T20:00:14.522Z,15.48
2018-03-28T20:02:41.339Z,15.18
2018-03-28T20:05:08.210Z,18.45
2018-03-28T20:07:35.023Z,19.12
2018-03-28T20:10:01.833Z,14.60
2018-03-28T20:12:28.685Z,17.95
2018-03-28T20:14:55.510Z,15.88
2018-03-28T20:17:22.279Z,20.67
2018-03-28T20:19:49.127Z,22.13
2018-03-28T20:22:16.032Z,14.52
2018-03-28T20:24:42.832Z,15.65
2018-03-28T20:27:09.720Z,16.35
2018-03-28T20:29:36.502Z,17.30
2018-03-28T20:32:03.348Z,16.85
2018-03-28T20:34:30.139Z,16.52
2018-03-28T20:36:56.963Z,14.77
2018-03-28T20:39:23.772Z,19.75
2018-03-28T20:41:50.572Z,16.25
2018-03-28T20:44:17.352Z,16.95
2018-03-28T20:46:44.199Z,17.42
2018-03-28T20:49:11.011Z,16.83
2018-03-28T20:51:37.850Z,16.48
2018-03-28T20:54:04.627Z,17.23
2018-03-28T20:56:31.450Z,11.32
2018-03-28T20:58:58.269Z,16.48
2018-03-28T21:01:25.110Z,18.50
2018-03-28T21:03:51.918Z,19.48
2018-03-28T21:06:18.770Z,14.30
2018-03-28T21:08:45.555Z,16.20
2018-03-28T21:11:12.325Z,15.30
2018-03-28T21:13:39.158Z,19.02
2018-03-28T21:16:06.002Z,17.52
2018-03-28T21:18:32.802Z,19.08
2018-03-28T21:20:59.626Z,21.77
2018-03-28T21:23:26.405Z,20.80
2018-03-28T21:25:53.168Z,15.70
2018-03-28T21:28:20.002Z,18.00
2018-03-28T21:30:46.810Z,21.35
2018-03-28T21:33:13.587Z,17.48
2018-03-28T21:35:40.733Z,19.15
2018-03-28T21:38:07.492Z,20.67
2018-03-28T21:40:34.348Z,20.42
2018-03-28T21:43:01.147Z,20.95
2018-03-28T21:45:27.938Z,21.42
2018-03-28T21:47:54.754Z,20.02
2018-03-28T21:50:21.556Z,24.65
2018-03-28T21:52:48.370Z,19.45
2018-03-28T21:55:15.148Z,15.98
2018-03-28T21:57:41.969Z,19.52
2018-03-28T22:00:08.727Z,17.65
2018-03-28T22:02:35.505Z,19.40
2018-03-28T22:05:02.347Z,18.67
2018-03-28T22:07:29.116Z,22.02
2018-03-28T22:09:55.920Z,20.12
2018-03-28T22:12:22.703Z,17.67
2018-03-28T22:14:49.493Z,20.57
2018-03-28T22:17:16.307Z,20.77
2018-03-28T22:19:43.083Z,24.20
2018-03-28T22:22:09.866Z,19.08
2018-03-28T22:24:36.678Z,17.37
2018-03-28T22:27:03.513Z,20.25
2018-03-28T22:29:30.366Z,22.37
2018-03-28T22:31:57.135Z,20.45
2018-03-28T22:34:23.918Z,21.20
2018-03-28T22:36:50.699Z,22.10
2018-03-28T22:39:17.480Z,20.08
2018-03-28T22:41:44.309Z,18.70
2018-03-28T22:44:11.105Z,17.62
2018-03-28T22:46:37.904Z,18.40
2018-03-28T22:49:04.689Z,18.65
2018-03-28T22:51:31.489Z,17.80
2018-03-28T22:53:58.333Z,22.05
2018-03-28T22:56:25.132Z,19.42
2018-03-28T22:58:51.929Z,18.75
2018-03-28T23:01:18.697Z,20.35
2018-03-28T23:03:45.468Z,18.50
2018-03-28T23:06:12.280Z,17.87
2018-03-28T23:08:39.067Z,23.30
2018-03-28T23:11:05.870Z,17.65
2018-03-28T23:13:32.635Z,16.30
2018-03-28T23:15:59.406Z,21.17
2018-03-28T23:18:26.203Z,20.95
2018-03-28T23:20:53.235Z,18.00
2018-03-28T23:23:20.011Z,23.62
2018-03-28T23:25:46.830Z,15.23
2018-03-28T23:28:13.601Z,14.82
